Time;durP1;ratioP1;P1;durP2;ratioP2;P2;SDS_P1;SDS_P2;PMS_P1;PMS_P2;Temp;Humidity;BMP_temperature;BMP_pressure;BME280_temperature;BME280_humidity;BME280_pressure;Samples;Min_cycle;Max_cycle;Signal;HPM_P1;HPM_P2
2022/08/11 00:02:36;;;;;;;14.30;5.00;;;;;;;15.51;48.70;99671.05;107829;1276;97056;-66
2022/08/11 00:05:08;;;;;;;16.40;5.60;;;;;;;15.45;48.79;99665.47;107937;1274;97115;-64
2022/08/11 00:07:51;;;;;;;15.30;4.90;;;;;;;15.43;48.80;99667.59;107854;1275;112845;-65
2022/08/11 00:10:28;;;;;;;17.10;5.40;;;;;;;15.36;48.89;99667.27;107783;1274;97415;-65
2022/08/11 00:13:02;;;;;;;11.50;4.60;;;;;;;15.34;49.00;99667.46;107758;1272;107789;-66
2022/08/11 00:15:42;;;;;;;11.00;4.50;;;;;;;15.29;49.07;99668.17;107745;1276;96998;-65
2022/08/11 00:18:12;;;;;;;13.50;4.40;;;;;;;15.27;49.16;99664.30;107912;1274;97029;-66
2022/08/11 00:20:42;;;;;;;14.90;4.70;;;;;;;15.23;49.16;99659.77;107831;1274;112481;-66
2022/08/11 00:23:18;;;;;;;11.90;4.30;;;;;;;15.21;49.34;99658.48;107849;1275;97358;-66
2022/08/11 00:25:50;;;;;;;11.90;4.90;;;;;;;15.19;49.28;99659.91;107888;1274;108326;-65
2022/08/11 00:28:33;;;;;;;13.10;5.20;;;;;;;15.11;49.34;99658.92;107893;1274;97061;-66
2022/08/11 00:31:06;;;;;;;11.40;4.60;;;;;;;15.05;49.51;99660.68;107977;1274;96977;-65
2022/08/11 00:33:38;;;;;;;12.30;4.60;;;;;;;15.02;49.63;99658.20;107950;1274;112845;-65
2022/08/11 00:36:15;;;;;;;14.90;5.50;;;;;;;15.01;49.68;99661.21;107866;1276;97012;-66
2022/08/11 00:38:51;;;;;;;11.10;4.90;;;;;;;14.98;49.79;99658.06;107955;1274;108128;-66
2022/08/11 00:41:35;;;;;;;10.40;4.50;;;;;;;14.92;49.84;99658.90;107942;1274;97070;-66
2022/08/11 00:44:02;;;;;;;;;;;;;;;14.89;50.00;99659.98;107973;1274;96952;-66
2022/08/11 00:46:54;;;;;;;10.40;4.60;;;;;;;14.83;50.09;99662.23;107939;1274;112877;-66
2022/08/11 00:49:41;;;;;;;10.80;4.40;;;;;;;14.82;50.10;99661.88;107957;1274;97068;-66
2022/08/11 00:52:27;;;;;;;12.70;5.00;;;;;;;14.78;50.23;99656.65;107943;1274;107971;-67
2022/08/11 00:55:17;;;;;;;9.50;4.10;;;;;;;14.75;50.33;99657.27;107835;1277;97069;-66
2022/08/11 00:58:22;;;;;;;10.60;4.40;;;;;;;14.71;50.39;99657.31;107981;1273;96941;-66
2022/08/11 01:01:17;;;;;;;15.90;4.90;;;;;;;14.68;50.42;99657.19;107952;1274;112877;-67
2022/08/11 01:04:00;;;;;;;9.20;4.80;;;;;;;14.64;50.58;99652.74;107949;1274;97185;-67
2022/08/11 01:06:49;;;;;;;13.10;4.80;;;;;;;14.63;50.65;99656.95;107843;1276;107824;-67
2022/08/11 01:09:50;;;;;;;18.20;5.80;;;;;;;14.60;50.72;99659.77;107857;1274;97058;-67
2022/08/11 01:12:39;;;;;;;11.80;4.90;;;;;;;14.57;50.82;99658.64;107974;1274;96923;-66
2022/08/11 01:15:36;;;;;;;13.00;4.30;;;;;;;14.54;50.91;99652.59;107933;1274;112739;-67
2022/08/11 01:18:42;;;;;;;11.30;4.40;;;;;;;14.52;50.95;99655.67;107967;1274;97072;-67
2022/08/11 01:21:39;;;;;;;15.60;5.30;;;;;;;14.48;51.03;99655.60;107878;1274;107586;-67
2022/08/11 01:24:37;;;;;;;14.00;5.10;;;;;;;14.44;51.26;99652.70;107942;1274;97414;-67
2022/08/11 01:27:48;;;;;;;16.70;5.90;;;;;;;14.40;51.22;99650.84;107968;1274;97086;-67
2022/08/11 01:30:47;;;;;;;12.90;4.70;;;;;;;14.38;51.26;99649.91;107835;1276;112909;-68
2022/08/11 01:33:54;;;;;;;12.40;4.80;;;;;;;14.33;51.35;99649.84;107880;1277;96977;-66
2022/08/11 01:36:59;;;;;;;13.10;4.90;;;;;;;14.27;51.49;99643.68;107935;1273;108099;-66
2022/08/11 01:40:08;;;;;;;10.10;4.30;;;;;;;14.24;51.60;99643.35;107767;1276;97193;-66
2022/08/11 01:46:22;;;;;;;15.50;4.50;;;;;;;14.17;51.86;99643.04;107890;1276;111910;-66
2022/08/11 01:49:10;;;;;;;11.40;4.40;;;;;;;14.17;51.94;99642.88;107854;1274;99252;-66
2022/08/11 01:52:01;;;;;;;10.40;4.50;;;;;;;14.19;51.93;99642.50;107933;1274;107700;-66
2022/08/11 01:54:48;;;;;;;11.90;4.40;;;;;;;14.20;51.93;99646.88;107825;1275;97021;-67
2022/08/11 01:57:34;;;;;;;9.80;4.50;;;;;;;14.18;51.97;99640.45;107983;1274;97059;-67
2022/08/11 02:00:11;;;;;;;12.40;5.00;;;;;;;14.16;52.09;99640.10;107918;1274;112737;-66
2022/08/11 02:02:57;;;;;;;12.80;4.00;;;;;;;14.14;52.13;99641.84;107891;1276;97157;-67
2022/08/11 02:05:55;;;;;;;10.40;4.50;;;;;;;14.11;52.23;99640.66;107950;1274;107897;-66
2022/08/11 02:08:41;;;;;;;11.10;4.40;;;;;;;14.08;52.20;99642.14;107948;1274;96962;-67
2022/08/11 02:11:30;;;;;;;13.20;4.90;;;;;;;14.05;52.22;99640.05;107959;1274;97056;-67
2022/08/11 02:14:09;;;;;;;14.10;5.10;;;;;;;13.97;52.40;99636.20;107970;1274;112800;-67
2022/08/11 02:17:10;;;;;;;15.60;6.00;;;;;;;13.94;52.40;99637.33;107947;1274;97465;-66
2022/08/11 02:25:57;;;;;;;10.10;4.50;;;;;;;13.88;52.63;99645.08;107969;1274;97040;-68
2022/08/11 02:28:39;;;;;;;11.40;4.60;;;;;;;13.84;52.73;99644.89;107948;1274;112938;-67
2022/08/11 02:34:58;;;;;;;11.00;4.50;;;;;;;13.79;52.88;99652.75;107854;1276;107796;-65
2022/08/11 02:37:33;;;;;;;13.20;5.20;;;;;;;13.73;52.85;99644.47;107870;1274;96937;-67
2022/08/11 02:40:16;;;;;;;10.80;4.60;;;;;;;13.70;52.96;99649.10;107842;1274;99007;-66
2022/08/11 02:42:44;;;;;;;12.40;5.00;;;;;;;13.66;52.96;99645.29;107955;1274;112929;-66
2022/08/11 02:45:38;;;;;;;12.50;4.60;;;;;;;13.63;52.94;99640.73;107991;1274;97011;-66
2022/08/11 02:51:34;;;;;;;12.20;4.20;;;;;;;13.54;53.28;99643.22;107943;1274;96968;-67
2022/08/11 02:54:20;;;;;;;9.90;4.40;;;;;;;13.54;53.37;99649.30;107975;1274;97021;-68
2022/08/11 02:57:03;;;;;;;9.30;4.50;;;;;;;13.53;53.37;99652.38;107971;1274;112693;-66
2022/08/11 02:59:49;;;;;;;9.50;4.30;;;;;;;13.48;53.35;99653.27;107708;1276;96976;-67
2022/08/11 03:02:45;;;;;;;10.00;4.50;;;;;;;13.46;53.51;99655.91;107939;1274;107984;-67
2022/08/11 03:05:40;;;;;;;12.70;4.90;;;;;;;13.44;53.59;99654.27;107922;1274;97430;-66
2022/08/11 03:08:28;;;;;;;11.50;4.40;;;;;;;13.42;53.68;99647.66;107968;1274;96931;-66
2022/08/11 03:17:11;;;;;;;11.80;4.60;;;;;;;13.42;53.91;99658.38;107944;1274;107725;-68
2022/08/11 03:19:52;;;;;;;10.30;4.60;;;;;;;13.38;53.93;99655.92;107943;1274;97088;-67
2022/08/11 03:22:37;;;;;;;16.20;4.90;;;;;;;13.40;54.08;99657.61;107979;1274;96993;-66
2022/08/11 03:25:14;;;;;;;10.40;4.40;;;;;;;13.41;54.10;99660.02;107965;1274;112795;-66
2022/08/11 03:27:52;;;;;;;13.50;4.60;;;;;;;13.41;54.05;99658.94;107984;1274;97316;-66
2022/08/11 03:30:26;;;;;;;12.10;4.90;;;;;;;13.42;54.29;99661.77;107961;1274;107816;-67
2022/08/11 03:36:35;;;;;;;13.00;4.60;;;;;;;13.40;54.35;99660.11;107881;1276;96958;-67
2022/08/11 03:39:46;;;;;;;10.50;4.70;;;;;;;13.41;54.59;99665.02;107972;1274;112886;-67
2022/08/11 03:42:46;;;;;;;14.40;4.40;;;;;;;13.39;54.55;99663.76;108002;1274;97093;-66
2022/08/11 03:45:56;;;;;;;9.30;4.50;;;;;;;13.40;54.59;99661.70;107838;1274;107857;-67
2022/08/11 03:48:57;;;;;;;9.80;4.40;;;;;;;13.41;54.58;99667.67;107969;1274;96997;-65
2022/08/11 03:51:35;;;;;;;13.20;5.00;;;;;;;13.38;54.57;99665.05;107061;1274;1222692;-67
2022/08/11 03:54:41;;;;;;;12.90;5.20;;;;;;;13.36;54.71;99658.40;107961;1274;112484;-67
2022/08/11 03:57:43;;;;;;;12.90;4.80;;;;;;;13.40;54.87;99670.41;107962;1274;96998;-67
2022/08/11 04:00:49;;;;;;;10.50;4.30;;;;;;;13.39;54.88;99669.59;107966;1274;106841;-67
2022/08/11 04:03:35;;;;;;;10.00;4.60;;;;;;;13.37;54.81;99669.76;107605;1274;96979;-66
2022/08/11 04:06:44;;;;;;;13.60;4.90;;;;;;;13.36;54.98;99672.46;107957;1274;96905;-66
2022/08/11 04:09:46;;;;;;;15.00;4.80;;;;;;;13.39;55.10;99670.48;107962;1272;112877;-67
2022/08/11 04:12:42;;;;;;;14.10;5.00;;;;;;;13.45;55.24;99671.99;107929;1274;98157;-66
2022/08/11 04:19:06;;;;;;;12.20;4.80;;;;;;;13.55;55.32;99668.59;107939;1274;97025;-67
2022/08/11 04:21:34;;;;;;;12.20;4.60;;;;;;;13.59;55.53;99660.29;107967;1274;97067;-66
2022/08/11 04:24:07;;;;;;;31.80;19.90;;;;;;;13.63;55.43;99657.52;107968;1274;112880;-68
2022/08/11 04:27:26;;;;;;;16.40;7.50;;;;;;;13.64;55.59;99644.45;107984;1274;96994;-67
2022/08/11 04:30:21;;;;;;;16.00;5.60;;;;;;;13.70;55.72;99649.15;107947;1274;107654;-67
2022/08/11 04:33:35;;;;;;;14.00;5.40;;;;;;;13.76;55.67;99647.97;107951;1274;96994;-67
2022/08/11 04:39:56;;;;;;;18.50;5.50;;;;;;;13.90;55.94;99645.15;107983;1274;112823;-66
2022/08/11 04:46:05;;;;;;;17.80;6.10;;;;;;;14.06;56.11;99648.17;107947;1274;107988;-66
2022/08/11 05:01:54;;;;;;;16.80;6.30;;;;;;;14.41;56.55;99649.36;107947;1274;107619;-65
2022/08/11 05:07:44;;;;;;;17.50;6.00;;;;;;;14.51;56.65;99646.40;107879;1274;97025;-66
2022/08/11 05:10:24;;;;;;;17.30;6.50;;;;;;;14.57;56.60;99650.90;107878;1274;112947;-66
2022/08/11 05:12:54;;;;;;;18.80;6.10;;;;;;;14.65;56.64;99658.52;107810;1274;97274;-67
2022/08/11 05:36:49;;;;;;;24.00;8.00;;;;;;;15.39;57.03;99658.13;107911;1274;96920;-66
2022/08/11 05:56:19;;;;;;;21.50;7.70;;;;;;;16.02;57.28;99658.40;107908;1274;98605;-65
2022/08/11 05:58:52;;;;;;;22.50;8.20;;;;;;;16.10;57.21;99657.86;107865;1274;107808;-63
2022/08/11 06:01:22;;;;;;;23.10;7.90;;;;;;;16.19;57.27;99660.66;107869;1274;97923;-65
2022/08/11 06:06:56;;;;;;;16.90;5.90;;;;;;;16.38;57.37;99652.94;107831;1274;112802;-64
2022/08/11 06:09:33;;;;;;;16.30;6.00;;;;;;;16.47;57.40;99656.08;107822;1274;97288;-64
2022/08/11 06:12:14;;;;;;;20.90;6.00;;;;;;;16.54;57.42;99652.95;107876;1274;107597;-63
2022/08/11 06:14:44;;;;;;;17.60;5.80;;;;;;;16.63;57.36;99652.95;107860;1274;97108;-63
2022/08/11 06:17:13;;;;;;;13.60;5.70;;;;;;;16.70;57.40;99652.45;107911;1274;97081;-63
2022/08/11 06:19:46;;;;;;;15.80;5.60;;;;;;;16.78;57.40;99650.71;107917;1274;112861;-64
2022/08/11 06:22:20;;;;;;;14.80;5.80;;;;;;;16.88;57.44;99653.20;107927;1274;97112;-64
2022/08/11 06:25:00;;;;;;;16.60;5.70;;;;;;;17.01;57.40;99649.43;107845;1276;107727;-64
2022/08/11 06:27:34;;;;;;;14.60;5.40;;;;;;;17.14;57.49;99653.98;107897;1273;97558;-64
2022/08/11 06:30:14;;;;;;;15.20;6.10;;;;;;;17.27;57.41;99657.28;107869;1276;96960;-64
2022/08/11 06:32:50;;;;;;;16.00;4.90;;;;;;;17.39;57.56;99656.69;107655;1276;112770;-66
2022/08/11 06:35:45;;;;;;;13.00;5.90;;;;;;;17.53;57.44;99656.85;107877;1274;97120;-65
2022/08/11 06:38:31;;;;;;;12.10;4.90;;;;;;;17.70;57.47;99661.96;107910;1274;109272;-65
2022/08/11 06:44:06;;;;;;;16.00;5.50;;;;;;;18.13;57.56;99657.98;107891;1274;97108;-66
2022/08/11 06:46:40;;;;;;;11.70;4.60;;;;;;;18.33;57.65;99652.52;107889;1274;112891;-65
2022/08/11 06:52:12;;;;;;;15.20;5.10;;;;;;;18.68;57.36;99652.00;107907;1274;107847;-66
2022/08/11 06:55:05;;;;;;;14.70;5.70;;;;;;;18.85;57.55;99650.91;107874;1274;97379;-66
2022/08/11 07:00:28;;;;;;;16.20;5.40;;;;;;;19.21;57.45;99648.60;107662;1276;112824;-64
2022/08/11 07:03:10;;;;;;;17.40;5.00;;;;;;;19.44;57.43;99650.35;107882;1274;97354;-65
2022/08/11 07:06:05;;;;;;;15.70;5.30;;;;;;;19.67;57.35;99646.77;107890;1274;107833;-65
2022/08/11 07:15:40;;;;;;;14.30;4.90;;;;;;;20.12;57.19;99640.17;107872;1276;97408;-65
2022/08/11 07:17:30;;;;;;;14.20;3.80;;;;;;;21.82;55.72;99634.06;107843;1274;98044;-66
2022/08/11 07:31:28;;;;;;;12.40;4.30;;;;;;;27.64;55.40;99624.86;107794;1274;97493;-66
2022/08/11 07:34:18;;;;;;;13.20;4.40;;;;;;;28.20;55.18;99625.23;107796;1274;107827;-66
2022/08/11 07:36:52;;;;;;;17.70;5.10;;;;;;;28.71;54.65;99621.54;107894;1274;97303;-66
2022/08/11 07:39:26;;;;;;;13.40;4.20;;;;;;;28.95;54.53;99619.59;107847;1274;97615;-66
2022/08/11 07:41:57;;;;;;;14.10;3.80;;;;;;;29.24;54.19;99618.05;107749;1274;112822;-65
2022/08/11 07:44:29;;;;;;;12.40;4.40;;;;;;;29.35;53.77;99619.27;107891;1275;97457;-65
2022/08/11 07:52:39;;;;;;;10.90;3.80;;;;;;;30.88;52.35;99620.15;107884;1274;97186;-65
2022/08/11 07:55:13;;;;;;;13.30;4.80;;;;;;;31.02;52.45;99613.55;107839;1274;114388;-66
2022/08/11 08:17:56;;;;;;;5.00;2.70;;;;;;;29.65;49.48;99611.57;107830;1274;97463;-66
2022/08/11 08:20:49;;;;;;;8.40;2.80;;;;;;;29.82;49.08;99614.25;107880;1274;97367;-67
2022/08/11 08:23:32;;;;;;;9.40;2.80;;;;;;;30.28;48.74;99613.97;107843;1274;112765;-67
2022/08/11 08:26:57;;;;;;;9.80;3.10;;;;;;;30.77;48.20;99612.39;107815;1274;97515;-66
2022/08/11 08:30:45;;;;;;;6.30;2.90;;;;;;;31.01;48.01;99616.16;107837;1274;107922;-65
2022/08/11 08:31:47;;;;;;;5.30;2.50;;;;;;;31.80;47.46;99605.94;107731;1274;97515;-66
2022/08/11 08:34:16;;;;;;;4.20;2.20;;;;;;;32.23;47.55;99606.14;107776;1274;97282;-65
2022/08/11 08:36:48;;;;;;;5.70;2.40;;;;;;;32.28;47.09;99599.59;107869;1274;113589;-66
2022/08/11 08:39:20;;;;;;;4.90;2.50;;;;;;;32.32;46.61;99602.61;107864;1274;97096;-65
2022/08/11 08:41:53;;;;;;;5.80;2.40;;;;;;;32.49;46.56;99591.89;107807;1275;107918;-66
2022/08/11 08:44:23;;;;;;;4.50;2.20;;;;;;;32.62;45.79;99594.25;107879;1274;97133;-66
2022/08/11 08:47:18;;;;;;;2.90;2.30;;;;;;;32.16;46.11;99592.86;107857;1274;96938;-66
2022/08/11 08:50:12;;;;;;;5.80;2.00;;;;;;;31.67;45.38;99599.52;107958;1274;112950;-68
2022/08/11 08:53:10;;;;;;;4.60;2.30;;;;;;;31.38;44.98;99597.30;107873;1274;97531;-67
2022/08/11 08:55:39;;;;;;;2.40;2.00;;;;;;;32.19;44.54;99586.47;107841;1276;106637;-65
2022/08/11 08:58:14;;;;;;;5.30;1.80;;;;;;;33.03;43.88;99581.00;107863;1274;97063;-66
2022/08/11 09:00:45;;;;;;;5.40;2.10;;;;;;;33.38;43.89;99581.45;107950;1274;97094;-68
2022/08/11 09:03:13;;;;;;;6.20;2.40;;;;;;;33.09;43.93;99588.00;107863;1276;113418;-68
2022/08/11 09:06:01;;;;;;;4.60;2.10;;;;;;;32.54;43.40;99585.33;107921;1274;97462;-70
2022/08/11 09:08:32;;;;;;;4.20;2.00;;;;;;;32.12;43.44;99579.76;107898;1274;107269;-66
2022/08/11 09:13:50;;;;;;;2.80;1.90;;;;;;;32.23;42.10;99566.82;107899;1276;97027;-67
2022/08/11 09:16:37;;;;;;;5.40;2.30;;;;;;;32.55;42.12;99558.55;107836;1274;111824;-66
2022/08/11 09:19:07;;;;;;;6.60;2.10;;;;;;;32.45;41.98;99560.77;107826;1274;97120;-66
2022/08/11 09:21:40;;;;;;;8.00;2.20;;;;;;;32.22;41.99;99549.77;107803;1274;107797;-66
2022/08/11 09:27:07;;;;;;;4.60;2.30;;;;;;;32.33;41.33;99547.70;107836;1274;97051;-66
2022/08/11 09:29:37;;;;;;;6.10;2.00;;;;;;;32.90;41.26;99556.56;107854;1274;112548;-67
2022/08/11 09:32:07;;;;;;;6.00;2.00;;;;;;;33.66;40.90;99556.35;107805;1274;97472;-66
2022/08/11 09:34:36;;;;;;;8.10;2.10;;;;;;;33.93;40.69;99556.12;107850;1274;107127;-67
2022/08/11 09:40:30;;;;;;;6.10;2.10;;;;;;;33.03;40.08;99563.52;107162;1281;97275;-66
2022/08/11 09:46:07;;;;;;;4.20;2.50;;;;;;;31.58;39.69;99563.90;107892;1274;97420;-67
2022/08/11 09:48:39;;;;;;;8.70;2.60;;;;;;;31.18;39.52;99565.09;107876;1274;107810;-64
2022/08/11 09:51:08;;;;;;;6.40;2.80;;;;;;;30.69;39.20;99559.89;107872;1274;97052;-65
2022/08/11 09:53:42;;;;;;;4.70;2.70;;;;;;;30.13;39.10;99563.20;107836;1274;97473;-64
2022/08/11 09:59:20;;;;;;;9.20;2.90;;;;;;;29.14;38.82;99562.84;107791;1275;97586;-67
2022/08/11 10:01:55;;;;;;;12.10;2.70;;;;;;;28.91;38.95;99569.58;107808;1274;107830;-71
2022/08/11 10:04:31;;;;;;;6.10;2.60;;;;;;;28.67;38.81;99564.88;107766;1275;97303;-70
2022/08/11 10:07:01;;;;;;;5.00;2.60;;;;;;;28.47;38.62;99560.64;107884;1274;97265;-70
2022/08/11 10:09:37;;;;;;;9.30;2.90;;;;;;;28.18;38.34;99565.23;107909;1274;112833;-73
2022/08/11 10:12:09;;;;;;;12.70;2.80;;;;;;;27.85;38.76;99573.29;107758;1275;97509;-71
2022/08/11 10:17:31;;;;;;;4.00;2.10;;;;;;;27.14;38.80;99572.31;107839;1274;97377;-66
2022/08/11 10:20:03;;;;;;;4.20;2.40;;;;;;;26.76;38.51;99576.79;107910;1274;97389;-72
2022/08/11 10:28:08;;;;;;;5.60;2.90;;;;;;;26.10;38.90;99586.75;107875;1274;106152;-69
2022/08/11 10:34:02;;;;;;;12.50;2.50;;;;;;;25.34;38.67;99587.67;107929;1274;97295;-69
2022/08/11 10:36:32;;;;;;;8.10;2.40;;;;;;;25.06;38.91;99586.39;107884;1274;112384;-70
2022/08/11 10:39:04;;;;;;;9.20;3.00;;;;;;;24.89;39.25;99583.09;107903;1274;97595;-69
2022/08/11 10:44:43;;;;;;;6.50;2.30;;;;;;;24.54;39.51;99573.16;107851;1274;97040;-67
2022/08/11 11:01:14;;;;;;;4.40;2.00;;;;;;;24.24;40.35;99556.76;107899;1274;97023;-67
2022/08/11 11:03:43;;;;;;;5.90;2.20;;;;;;;24.25;40.48;99557.98;107742;1274;113357;-67
2022/08/11 11:06:25;;;;;;;5.50;2.40;;;;;;;24.26;40.68;99559.54;107873;1274;97461;-66
2022/08/11 11:09:13;;;;;;;6.20;2.30;;;;;;;24.27;40.82;99545.10;107869;1274;107990;-65
2022/08/11 11:18:03;;;;;;;5.50;2.70;;;;;;;24.28;41.26;99541.30;107863;1274;113382;-66
2022/08/11 11:20:40;;;;;;;7.00;2.80;;;;;;;24.28;41.54;99537.16;107817;1276;98569;-64
2022/08/11 11:23:31;;;;;;;6.50;2.70;;;;;;;24.34;41.68;99539.71;107790;1274;108520;-67
2022/08/11 11:26:13;;;;;;;4.60;2.50;;;;;;;24.38;41.64;99531.64;107904;1274;97094;-65
2022/08/11 11:29:01;;;;;;;4.50;2.70;;;;;;;24.35;41.76;99530.10;107865;1274;97124;-66
2022/08/11 11:31:37;;;;;;;5.30;2.60;;;;;;;24.35;41.81;99532.36;107848;1274;112885;-69
2022/08/11 11:34:17;;;;;;;3.20;2.20;;;;;;;24.32;41.78;99528.26;107875;1274;97386;-66
2022/08/11 11:36:50;;;;;;;8.30;2.80;;;;;;;24.30;41.91;99524.10;107850;1274;107673;-69
2022/08/11 11:39:24;;;;;;;6.10;2.60;;;;;;;24.33;42.22;99527.19;107804;1276;99017;-69
2022/08/11 11:42:02;;;;;;;8.00;2.60;;;;;;;24.40;42.37;99522.59;107900;1274;99185;-64
2022/08/11 11:44:31;;;;;;;9.90;3.40;;;;;;;24.45;42.35;99516.45;107830;1275;114044;-70
2022/08/11 11:47:00;;;;;;;11.70;4.10;;;;;;;24.51;42.41;99505.60;107938;1274;98594;-67
2022/08/11 11:49:31;;;;;;;11.50;3.80;;;;;;;24.63;42.79;99502.61;107910;1274;107849;-65
2022/08/11 11:52:00;;;;;;;10.50;3.20;;;;;;;24.73;42.75;99496.91;107902;1274;97184;-67
2022/08/11 11:54:30;;;;;;;6.80;2.80;;;;;;;24.80;42.50;99496.02;107843;1274;97195;-66
2022/08/11 12:01:14;;;;;;;7.40;3.40;;;;;;;24.75;42.71;99487.87;107893;1274;112670;-66
2022/08/11 12:02:39;;;;;;;6.10;2.70;;;;;;;24.72;43.25;99472.00;107876;1274;107706;-65
2022/08/11 12:05:09;;;;;;;5.00;2.80;;;;;;;24.80;43.26;99473.16;107871;1274;97141;-65
2022/08/11 12:10:46;;;;;;;5.10;2.80;;;;;;;24.87;43.43;99475.15;107930;1274;112841;-66
2022/08/11 12:16:04;;;;;;;7.00;2.70;;;;;;;25.04;43.44;99467.98;107888;1274;107847;-64
2022/08/11 12:18:55;;;;;;;3.50;2.50;;;;;;;25.15;43.41;99472.77;107893;1274;97375;-65
2022/08/11 12:21:25;;;;;;;6.50;3.00;;;;;;;25.25;43.51;99474.89;107802;1274;97154;-65
2022/08/11 12:29:36;;;;;;;8.20;3.10;;;;;;;25.15;43.75;99468.95;107896;1274;108457;-67
2022/08/11 12:32:11;;;;;;;7.30;2.90;;;;;;;25.09;43.85;99462.91;107907;1274;97604;-64
2022/08/11 12:34:39;;;;;;;7.00;3.40;;;;;;;25.04;43.84;99463.92;107901;1274;97436;-64
2022/08/11 12:37:11;;;;;;;8.30;2.70;;;;;;;25.00;43.91;99467.75;107837;1275;112494;-65
2022/08/11 12:46:09;;;;;;;6.80;2.60;;;;;;;24.82;43.91;99463.52;107908;1274;97297;-67
2022/08/11 12:51:57;;;;;;;3.50;2.50;;;;;;;24.67;43.83;99458.66;107897;1274;112975;-67
2022/08/11 12:54:50;;;;;;;12.00;3.50;;;;;;;24.59;43.94;99454.90;107807;1276;97389;-67
2022/08/11 13:06:06;;;;;;;9.90;3.20;;;;;;;24.34;44.06;99442.06;107935;1274;113022;-67
2022/08/11 13:08:38;;;;;;;4.80;2.60;;;;;;;24.35;43.83;99445.00;107759;1276;97394;-67
2022/08/11 13:14:15;;;;;;;10.00;2.80;;;;;;;24.38;43.92;99440.59;107904;1274;97108;-67
2022/08/11 13:19:33;;;;;;;3.60;2.50;;;;;;;24.36;43.82;99434.39;107933;1274;112624;-65
2022/08/11 13:22:06;;;;;;;4.80;2.70;;;;;;;24.34;43.74;99428.63;107938;1274;97504;-67
2022/08/11 13:24:35;;;;;;;5.70;2.80;;;;;;;24.38;43.92;99422.86;107865;1275;108188;-66
2022/08/11 13:27:03;;;;;;;5.70;2.50;;;;;;;24.37;43.86;99415.38;107922;1274;97588;-66
2022/08/11 13:29:32;;;;;;;7.10;2.70;;;;;;;24.33;43.80;99412.60;107945;1274;97368;-67
2022/08/11 13:31:59;;;;;;;7.30;2.70;;;;;;;24.34;43.78;99410.36;107939;1274;112841;-67
2022/08/11 13:34:30;;;;;;;5.20;2.20;;;;;;;24.41;43.91;99410.09;107877;1276;97369;-72
2022/08/11 13:37:00;;;;;;;6.90;2.40;;;;;;;24.50;43.74;99409.77;107908;1274;107663;-68
2022/08/11 13:39:31;;;;;;;10.60;3.00;;;;;;;24.57;43.76;99404.05;107885;1274;97090;-68
2022/08/11 13:42:01;;;;;;;7.10;2.90;;;;;;;24.57;43.70;99401.16;107949;1274;96931;-68
2022/08/11 13:44:32;;;;;;;5.30;2.50;;;;;;;24.57;43.84;99402.98;107809;1276;112669;-68
2022/08/11 13:47:03;;;;;;;4.70;2.70;;;;;;;24.64;44.00;99403.53;107818;1275;97534;-68
2022/08/11 13:49:34;;;;;;;6.60;2.70;;;;;;;24.64;43.98;99408.70;107784;1274;108656;-68
2022/08/11 13:52:05;;;;;;;6.90;2.70;;;;;;;24.61;43.99;99406.64;107734;1276;97134;-68
2022/08/11 13:54:37;;;;;;;7.20;2.80;;;;;;;24.56;44.03;99412.13;107824;1274;97314;-68
2022/08/11 13:57:07;;;;;;;6.10;2.90;;;;;;;24.52;44.18;99419.52;107829;1274;112852;-69
2022/08/11 14:00:08;;;;;;;27.30;4.70;;;;;;;24.52;44.28;99458.89;107629;1274;97467;-65
2022/08/11 14:02:42;;;;;;;6.70;2.70;;;;;;;23.50;43.41;99431.59;107828;1274;108291;-65
2022/08/11 14:05:16;;;;;;;7.80;2.80;;;;;;;22.24;44.18;99423.89;107926;1274;97467;-66
2022/08/11 14:07:51;;;;;;;5.40;3.00;;;;;;;21.62;44.33;99431.46;107890;1274;97068;-66
2022/08/11 14:10:24;;;;;;;6.50;3.00;;;;;;;21.27;45.52;99425.29;107843;1276;112879;-66
2022/08/11 14:15:48;;;;;;;5.50;3.10;;;;;;;20.96;45.90;99410.99;107931;1274;107717;-66
2022/08/11 14:18:19;;;;;;;7.80;3.20;;;;;;;20.84;45.84;99414.84;107884;1274;97042;-66
2022/08/11 14:23:44;;;;;;;5.00;2.80;;;;;;;20.57;46.24;99417.61;107895;1274;112891;-69
2022/08/11 14:26:28;;;;;;;9.20;3.40;;;;;;;20.48;46.60;99435.95;107920;1274;97330;-66
2022/08/11 14:29:09;;;;;;;9.60;3.60;;;;;;;20.43;46.43;99489.63;107922;1274;107652;-67
2022/08/11 14:31:44;;;;;;;9.70;3.70;;;;;;;20.26;46.53;99520.98;107931;1274;96971;-66
2022/08/11 14:34:13;;;;;;;11.90;3.50;;;;;;;20.08;46.74;99510.30;107953;1274;97980;-66
2022/08/11 14:36:46;;;;;;;12.20;3.60;;;;;;;19.86;46.68;99490.89;107921;1274;111799;-66
2022/08/11 14:39:16;;;;;;;9.00;3.10;;;;;;;19.66;46.97;99493.55;107910;1274;97005;-67
2022/08/11 14:47:03;;;;;;;6.80;3.30;;;;;;;19.39;47.33;99491.73;107878;1274;97076;-67
2022/08/11 14:47:53;;;;;;;12.20;3.30;;;;;;;19.29;47.67;99490.16;107904;1274;96964;-66
2022/08/11 14:50:24;;;;;;;9.00;3.70;;;;;;;19.21;47.91;99492.39;107909;1274;112791;-66
2022/08/11 14:52:57;;;;;;;10.60;3.20;;;;;;;19.13;47.69;99478.85;107873;1276;97041;-67
2022/08/11 14:58:17;;;;;;;8.40;2.90;;;;;;;18.98;48.14;99478.44;107795;1274;97067;-67
2022/08/11 15:00:46;;;;;;;6.90;2.90;;;;;;;18.90;48.15;99474.27;107914;1274;97154;-66
2022/08/11 15:03:14;;;;;;;8.40;3.10;;;;;;;18.82;48.41;99473.82;107847;1275;112843;-67
2022/08/11 15:05:55;;;;;;;8.90;3.20;;;;;;;18.79;48.54;99476.32;107828;1276;97046;-66
2022/08/11 15:14:06;;;;;;;13.40;3.30;;;;;;;18.70;49.19;99491.40;107940;1274;97021;-67
2022/08/11 15:19:30;;;;;;;7.70;3.30;;;;;;;18.70;49.83;99496.42;107863;1274;97119;-66
2022/08/11 15:24:59;;;;;;;13.40;4.50;;;;;;;18.74;50.38;99504.27;107870;1274;97153;-67
2022/08/11 15:38:46;;;;;;;9.80;3.80;;;;;;;18.75;50.88;99483.73;107923;1274;97023;-67
2022/08/11 15:47:19;;;;;;;10.90;4.10;;;;;;;18.73;51.40;99472.11;107938;1274;97753;-67
2022/08/11 15:49:52;;;;;;;7.00;3.10;;;;;;;18.74;51.55;99477.40;106889;1276;1181205;-71
2022/08/11 15:52:47;;;;;;;8.20;3.60;;;;;;;18.74;51.62;99497.60;107922;1274;97010;-67
2022/08/11 15:55:15;;;;;;;12.30;4.50;;;;;;;18.74;51.86;99497.98;107857;1274;97088;-68
2022/08/11 16:06:39;;;;;;;16.10;4.90;;;;;;;18.74;52.55;99491.35;107872;1274;97016;-66
2022/08/11 16:09:28;;;;;;;15.10;4.40;;;;;;;18.72;52.51;99487.34;107940;1274;97047;-67
2022/08/11 16:12:21;;;;;;;11.90;4.30;;;;;;;18.70;52.54;99481.87;107941;1274;112828;-65
2022/08/11 16:17:50;;;;;;;11.00;4.10;;;;;;;18.60;52.53;99479.41;107814;1276;107861;-66
2022/08/11 16:20:22;;;;;;;7.90;3.60;;;;;;;18.57;52.69;99487.06;107747;1276;97427;-65
2022/08/11 16:22:53;;;;;;;11.10;4.10;;;;;;;18.53;52.92;99484.45;107858;1276;97240;-69
2022/08/11 16:25:35;;;;;;;10.90;4.00;;;;;;;18.48;52.84;99483.67;107821;1276;112842;-66
2022/08/11 16:28:25;;;;;;;11.00;4.00;;;;;;;18.41;52.99;99485.80;107851;1275;97482;-67
2022/08/11 16:30:55;;;;;;;14.30;4.80;;;;;;;18.35;52.86;99488.42;107817;1276;108015;-65
2022/08/11 16:33:24;;;;;;;15.40;4.70;;;;;;;18.25;53.16;99487.91;107836;1276;96988;-65
2022/08/11 16:39:02;;;;;;;9.40;3.90;;;;;;;18.14;53.50;99482.14;107837;1276;112534;-66
2022/08/11 16:47:12;;;;;;;12.60;4.40;;;;;;;17.99;53.43;99467.64;107764;1276;98216;-66
2022/08/11 16:49:47;;;;;;;13.40;4.10;;;;;;;17.94;53.82;99470.24;107781;1276;97312;-66
2022/08/11 16:52:22;;;;;;;12.10;4.50;;;;;;;17.92;53.94;99471.72;107822;1276;113083;-66
2022/08/11 16:54:50;;;;;;;9.50;4.10;;;;;;;17.89;54.18;99472.39;107831;1276;97069;-64
2022/08/11 17:00:16;;;;;;;14.40;4.90;;;;;;;17.87;54.31;99467.52;107806;1276;97166;-65
2022/08/11 17:14:20;;;;;;;13.80;4.90;;;;;;;17.70;54.85;99466.42;107754;1276;97370;-67
2022/08/11 17:17:12;;;;;;;12.90;5.10;;;;;;;17.67;55.01;99471.40;107879;1274;97342;-66
2022/08/11 17:19:50;;;;;;;11.60;5.20;;;;;;;17.65;54.96;99471.07;107936;1274;112809;-65
2022/08/11 17:25:31;;;;;;;11.30;4.60;;;;;;;17.61;55.48;99474.11;107844;1276;106476;-66
2022/08/11 17:28:21;;;;;;;14.00;5.10;;;;;;;17.60;55.38;99469.15;107884;1274;97918;-66